sensor_id;sensor_type;location;lat;lon;timestamp;pressure;altitude;pressure_sealevel;temperature;humidity
64628;BME280;59036;50.960;0.314;2022-10-30T00:00:59;99855.37;;;13.76;98.88
64628;BME280;59036;50.960;0.314;2022-10-30T00:03:28;99862.64;;;14.01;98.03
64628;BME280;59036;50.960;0.314;2022-10-30T00:05:55;99869.04;;;13.94;97.47
64628;BME280;59036;50.960;0.314;2022-10-30T00:08:23;99878.07;;;13.72;97.99
64628;BME280;59036;50.960;0.314;2022-10-30T00:10:50;99875.85;;;13.70;100.00
64628;BME280;59036;50.960;0.314;2022-10-30T00:13:19;99879.49;;;13.36;100.00
64628;BME280;59036;50.960;0.314;2022-10-30T00:15:47;99886.81;;;13.57;100.00
64628;BME280;59036;50.960;0.314;2022-10-30T00:18:15;99898.07;;;13.24;100.00
64628;BME280;59036;50.960;0.314;2022-10-30T00:20:43;99890.96;;;13.60;100.00
64628;BME280;59036;50.960;0.314;2022-10-30T00:23:10;99880.09;;;13.09;100.00
64628;BME280;59036;50.960;0.314;2022-10-30T00:25:38;99885.82;;;13.26;100.00
64628;BME280;59036;50.960;0.314;2022-10-30T00:28:05;99871.67;;;13.57;100.00
64628;BME280;59036;50.960;0.314;2022-10-30T00:30:33;99853.61;;;13.65;100.00
64628;BME280;59036;50.960;0.314;2022-10-30T00:33:01;99865.81;;;13.03;100.00
64628;BME280;59036;50.960;0.314;2022-10-30T00:35:28;99866.44;;;12.66;100.00
64628;BME280;59036;50.960;0.314;2022-10-30T00:37:56;99862.17;;;12.56;100.00
64628;BME280;59036;50.960;0.314;2022-10-30T00:40:23;99870.54;;;12.47;100.00
64628;BME280;59036;50.960;0.314;2022-10-30T00:42:50;99868.07;;;12.31;100.00
64628;BME280;59036;50.960;0.314;2022-10-30T00:45:18;99868.37;;;12.62;100.00
64628;BME280;59036;50.960;0.314;2022-10-30T00:47:50;99864.30;;;12.70;100.00
64628;BME280;59036;50.960;0.314;2022-10-30T00:50:22;99853.31;;;12.60;100.00
64628;BME280;59036;50.960;0.314;2022-10-30T00:52:55;99843.99;;;12.53;100.00
64628;BME280;59036;50.960;0.314;2022-10-30T00:55:38;99837.66;;;12.49;100.00
64628;BME280;59036;50.960;0.314;2022-10-30T00:58:12;99841.36;;;12.62;100.00
64628;BME280;59036;50.960;0.314;2022-10-30T01:00:43;99826.23;;;12.88;100.00
64628;BME280;59036;50.960;0.314;2022-10-30T01:03:12;99816.05;;;13.08;100.00
64628;BME280;59036;50.960;0.314;2022-10-30T01:05:42;99802.75;;;13.43;100.00
64628;BME280;59036;50.960;0.314;2022-10-30T01:08:11;99806.68;;;13.40;100.00
64628;BME280;59036;50.960;0.314;2022-10-30T01:10:38;99812.05;;;13.34;100.00
64628;BME280;59036;50.960;0.314;2022-10-30T01:13:07;99818.27;;;13.11;100.00
64628;BME280;59036;50.960;0.314;2022-10-30T01:15:38;99831.05;;;13.10;100.00
64628;BME280;59036;50.960;0.314;2022-10-30T01:18:21;99823.64;;;12.79;100.00
64628;BME280;59036;50.960;0.314;2022-10-30T01:21:06;99833.65;;;12.35;100.00
64628;BME280;59036;50.960;0.314;2022-10-30T01:23:44;99840.17;;;12.68;100.00
64628;BME280;59036;50.960;0.314;2022-10-30T01:26:21;99841.73;;;13.12;100.00
64628;BME280;59036;50.960;0.314;2022-10-30T01:29:04;99839.16;;;12.68;100.00
64628;BME280;59036;50.960;0.314;2022-10-30T01:31:48;99842.34;;;13.02;100.00
64628;BME280;59036;50.960;0.314;2022-10-30T01:34:20;99837.92;;;12.52;100.00
64628;BME280;59036;50.960;0.314;2022-10-30T01:36:58;99834.52;;;12.57;100.00
64628;BME280;59036;50.960;0.314;2022-10-30T01:39:30;99833.07;;;13.17;100.00
64628;BME280;59036;50.960;0.314;2022-10-30T01:41:58;99827.18;;;13.28;100.00
64628;BME280;59036;50.960;0.314;2022-10-30T01:44:28;99828.82;;;12.63;100.00
64628;BME280;59036;50.960;0.314;2022-10-30T01:47:10;99830.86;;;12.84;100.00
64628;BME280;59036;50.960;0.314;2022-10-30T01:50:01;99832.81;;;13.00;100.00
64628;BME280;59036;50.960;0.314;2022-10-30T01:52:39;99830.98;;;12.49;100.00
64628;BME280;59036;50.960;0.314;2022-10-30T01:55:19;99823.19;;;12.73;100.00
64628;BME280;59036;50.960;0.314;2022-10-30T01:57:54;99827.61;;;12.61;100.00
64628;BME280;59036;50.960;0.314;2022-10-30T02:00:25;99831.63;;;13.12;100.00
64628;BME280;59036;50.960;0.314;2022-10-30T02:02:53;99830.92;;;12.98;100.00
64628;BME280;59036;50.960;0.314;2022-10-30T02:05:27;99817.82;;;12.90;100.00
64628;BME280;59036;50.960;0.314;2022-10-30T02:07:56;99820.85;;;13.06;100.00
64628;BME280;59036;50.960;0.314;2022-10-30T02:10:23;99817.28;;;12.92;100.00
64628;BME280;59036;50.960;0.314;2022-10-30T02:12:50;99819.29;;;12.88;100.00
64628;BME280;59036;50.960;0.314;2022-10-30T02:15:18;99824.07;;;13.18;100.00
64628;BME280;59036;50.960;0.314;2022-10-30T02:17:45;99818.11;;;13.19;100.00
64628;BME280;59036;50.960;0.314;2022-10-30T02:20:14;99814.16;;;13.31;100.00
64628;BME280;59036;50.960;0.314;2022-10-30T02:22:41;99817.37;;;12.67;100.00
64628;BME280;59036;50.960;0.314;2022-10-30T02:25:09;99817.59;;;12.40;100.00
64628;BME280;59036;50.960;0.314;2022-10-30T02:27:36;99817.61;;;12.98;100.00
64628;BME280;59036;50.960;0.314;2022-10-30T02:30:05;99815.24;;;12.84;100.00
64628;BME280;59036;50.960;0.314;2022-10-30T02:32:33;99817.32;;;12.86;100.00
64628;BME280;59036;50.960;0.314;2022-10-30T02:35:00;99811.01;;;12.65;100.00
64628;BME280;59036;50.960;0.314;2022-10-30T02:37:27;99811.06;;;12.92;100.00
64628;BME280;59036;50.960;0.314;2022-10-30T02:39:55;99799.80;;;13.21;100.00
64628;BME280;59036;50.960;0.314;2022-10-30T02:42:22;99814.19;;;13.47;99.03
64628;BME280;59036;50.960;0.314;2022-10-30T02:44:49;99825.73;;;12.95;100.00
64628;BME280;59036;50.960;0.314;2022-10-30T02:47:16;99828.97;;;11.93;100.00
64628;BME280;59036;50.960;0.314;2022-10-30T02:49:43;99822.70;;;12.20;100.00
64628;BME280;59036;50.960;0.314;2022-10-30T02:52:11;99814.05;;;12.52;100.00
64628;BME280;59036;50.960;0.314;2022-10-30T02:54:38;99817.34;;;12.06;100.00
64628;BME280;59036;50.960;0.314;2022-10-30T02:57:05;99822.38;;;11.85;100.00
64628;BME280;59036;50.960;0.314;2022-10-30T02:59:32;99822.54;;;12.29;100.00
64628;BME280;59036;50.960;0.314;2022-10-30T03:01:59;99812.74;;;12.38;100.00
64628;BME280;59036;50.960;0.314;2022-10-30T03:04:26;99811.90;;;12.93;100.00
64628;BME280;59036;50.960;0.314;2022-10-30T03:06:53;99812.37;;;12.44;100.00
64628;BME280;59036;50.960;0.314;2022-10-30T03:09:21;99818.23;;;12.57;100.00
64628;BME280;59036;50.960;0.314;2022-10-30T03:11:48;99822.76;;;12.30;100.00
64628;BME280;59036;50.960;0.314;2022-10-30T03:14:15;99821.68;;;12.03;100.00
64628;BME280;59036;50.960;0.314;2022-10-30T03:16:42;99808.92;;;12.11;100.00
64628;BME280;59036;50.960;0.314;2022-10-30T03:19:10;99807.80;;;12.07;100.00
64628;BME280;59036;50.960;0.314;2022-10-30T03:21:37;99818.59;;;11.84;100.00
64628;BME280;59036;50.960;0.314;2022-10-30T03:24:04;99824.21;;;11.71;100.00
64628;BME280;59036;50.960;0.314;2022-10-30T03:26:32;99822.27;;;11.73;100.00
64628;BME280;59036;50.960;0.314;2022-10-30T03:28:59;99818.28;;;12.20;100.00
64628;BME280;59036;50.960;0.314;2022-10-30T03:31:28;99813.33;;;12.48;100.00
64628;BME280;59036;50.960;0.314;2022-10-30T03:33:56;99808.76;;;12.31;100.00
64628;BME280;59036;50.960;0.314;2022-10-30T03:36:24;99803.21;;;13.01;100.00
64628;BME280;59036;50.960;0.314;2022-10-30T03:38:52;99800.42;;;13.19;99.72
64628;BME280;59036;50.960;0.314;2022-10-30T03:41:19;99800.28;;;12.96;99.11
64628;BME280;59036;50.960;0.314;2022-10-30T03:43:46;99811.27;;;13.63;96.00
64628;BME280;59036;50.960;0.314;2022-10-30T03:46:13;99821.94;;;13.35;95.80
64628;BME280;59036;50.960;0.314;2022-10-30T03:48:40;99819.31;;;14.03;94.14
64628;BME280;59036;50.960;0.314;2022-10-30T03:51:07;99808.97;;;14.48;91.29
64628;BME280;59036;50.960;0.314;2022-10-30T03:53:34;99802.67;;;14.77;88.85
64628;BME280;59036;50.960;0.314;2022-10-30T03:56:04;99796.34;;;14.86;88.47
64628;BME280;59036;50.960;0.314;2022-10-30T03:58:31;99800.84;;;14.92;88.97
64628;BME280;59036;50.960;0.314;2022-10-30T04:01:00;99800.18;;;14.41;90.70
64628;BME280;59036;50.960;0.314;2022-10-30T04:03:28;99797.67;;;14.27;90.18
64628;BME280;59036;50.960;0.314;2022-10-30T04:05:55;99797.24;;;14.28;90.39
64628;BME280;59036;50.960;0.314;2022-10-30T04:08:22;99805.46;;;14.44;90.39
64628;BME280;59036;50.960;0.314;2022-10-30T04:10:50;99808.32;;;14.70;88.18
64628;BME280;59036;50.960;0.314;2022-10-30T04:13:18;99802.11;;;14.52;89.30
64628;BME280;59036;50.960;0.314;2022-10-30T04:15:47;99794.54;;;14.46;89.65
64628;BME280;59036;50.960;0.314;2022-10-30T04:18:15;99793.30;;;14.38;90.05
64628;BME280;59036;50.960;0.314;2022-10-30T04:20:43;99802.37;;;13.00;98.81
64628;BME280;59036;50.960;0.314;2022-10-30T04:23:14;99807.25;;;12.67;100.00
64628;BME280;59036;50.960;0.314;2022-10-30T04:25:43;99812.35;;;12.11;100.00
64628;BME280;59036;50.960;0.314;2022-10-30T04:28:10;99810.54;;;11.73;100.00
64628;BME280;59036;50.960;0.314;2022-10-30T04:30:38;99807.45;;;12.39;100.00
64628;BME280;59036;50.960;0.314;2022-10-30T04:33:06;99815.60;;;12.16;100.00
64628;BME280;59036;50.960;0.314;2022-10-30T04:35:35;99806.64;;;12.50;100.00
64628;BME280;59036;50.960;0.314;2022-10-30T04:38:04;99807.55;;;12.40;100.00
64628;BME280;59036;50.960;0.314;2022-10-30T04:40:33;99798.88;;;12.95;100.00
64628;BME280;59036;50.960;0.314;2022-10-30T04:43:02;99791.17;;;12.94;99.71
64628;BME280;59036;50.960;0.314;2022-10-30T04:45:29;99791.02;;;12.43;100.00
64628;BME280;59036;50.960;0.314;2022-10-30T04:48:01;99788.03;;;12.42;100.00
64628;BME280;59036;50.960;0.314;2022-10-30T04:50:30;99791.96;;;12.56;100.00
64628;BME280;59036;50.960;0.314;2022-10-30T04:52:59;99798.76;;;12.62;100.00
64628;BME280;59036;50.960;0.314;2022-10-30T04:55:27;99788.26;;;12.42;100.00
64628;BME280;59036;50.960;0.314;2022-10-30T04:57:56;99776.60;;;12.98;99.71
64628;BME280;59036;50.960;0.314;2022-10-30T05:00:24;99779.26;;;12.58;98.91
64628;BME280;59036;50.960;0.314;2022-10-30T05:02:51;99775.36;;;13.35;97.57
64628;BME280;59036;50.960;0.314;2022-10-30T05:05:19;99774.37;;;13.30;97.42
64628;BME280;59036;50.960;0.314;2022-10-30T05:07:46;99768.08;;;12.81;99.33
64628;BME280;59036;50.960;0.314;2022-10-30T05:10:14;99774.40;;;12.76;99.96
64628;BME280;59036;50.960;0.314;2022-10-30T05:12:41;99779.88;;;12.50;100.00
64628;BME280;59036;50.960;0.314;2022-10-30T05:15:09;99789.53;;;12.60;100.00
64628;BME280;59036;50.960;0.314;2022-10-30T05:17:37;99796.23;;;12.63;100.00
64628;BME280;59036;50.960;0.314;2022-10-30T05:20:05;99810.30;;;11.76;100.00
64628;BME280;59036;50.960;0.314;2022-10-30T05:22:33;99820.15;;;11.46;100.00
64628;BME280;59036;50.960;0.314;2022-10-30T05:25:00;99816.95;;;11.60;100.00
64628;BME280;59036;50.960;0.314;2022-10-30T05:27:27;99823.29;;;11.75;100.00
64628;BME280;59036;50.960;0.314;2022-10-30T05:29:54;99825.32;;;11.67;100.00
64628;BME280;59036;50.960;0.314;2022-10-30T05:32:21;99834.44;;;11.49;100.00
64628;BME280;59036;50.960;0.314;2022-10-30T05:34:49;99836.13;;;11.33;100.00
64628;BME280;59036;50.960;0.314;2022-10-30T05:37:16;99834.03;;;11.55;100.00
64628;BME280;59036;50.960;0.314;2022-10-30T05:39:44;99835.86;;;11.42;100.00
64628;BME280;59036;50.960;0.314;2022-10-30T05:42:12;99834.44;;;11.35;100.00
64628;BME280;59036;50.960;0.314;2022-10-30T05:44:40;99826.04;;;11.46;100.00
64628;BME280;59036;50.960;0.314;2022-10-30T05:47:07;99821.36;;;11.16;100.00
64628;BME280;59036;50.960;0.314;2022-10-30T05:49:34;99815.69;;;11.41;100.00
64628;BME280;59036;50.960;0.314;2022-10-30T05:52:01;99807.91;;;11.56;100.00
64628;BME280;59036;50.960;0.314;2022-10-30T05:54:28;99810.07;;;11.35;100.00
64628;BME280;59036;50.960;0.314;2022-10-30T05:56:56;99807.80;;;11.52;100.00
64628;BME280;59036;50.960;0.314;2022-10-30T05:59:24;99802.55;;;11.26;100.00
64628;BME280;59036;50.960;0.314;2022-10-30T06:01:51;99796.07;;;11.47;100.00
64628;BME280;59036;50.960;0.314;2022-10-30T06:04:18;99799.89;;;11.33;100.00
64628;BME280;59036;50.960;0.314;2022-10-30T06:06:45;99806.91;;;11.29;100.00
64628;BME280;59036;50.960;0.314;2022-10-30T06:09:12;99808.80;;;11.57;100.00
64628;BME280;59036;50.960;0.314;2022-10-30T06:11:39;99805.07;;;11.40;100.00
64628;BME280;59036;50.960;0.314;2022-10-30T06:14:06;99802.76;;;11.64;100.00
64628;BME280;59036;50.960;0.314;2022-10-30T06:16:33;99806.85;;;11.38;100.00
64628;BME280;59036;50.960;0.314;2022-10-30T06:19:00;99802.63;;;11.56;100.00
64628;BME280;59036;50.960;0.314;2022-10-30T06:21:27;99790.47;;;12.05;100.00
64628;BME280;59036;50.960;0.314;2022-10-30T06:23:54;99803.87;;;11.71;100.00
64628;BME280;59036;50.960;0.314;2022-10-30T06:26:21;99814.18;;;11.66;100.00
64628;BME280;59036;50.960;0.314;2022-10-30T06:28:48;99815.41;;;11.66;100.00
64628;BME280;59036;50.960;0.314;2022-10-30T06:31:15;99804.97;;;11.38;100.00
64628;BME280;59036;50.960;0.314;2022-10-30T06:33:42;99797.58;;;11.50;100.00
64628;BME280;59036;50.960;0.314;2022-10-30T06:36:10;99790.98;;;12.01;100.00
64628;BME280;59036;50.960;0.314;2022-10-30T06:38:37;99820.24;;;11.45;100.00
64628;BME280;59036;50.960;0.314;2022-10-30T06:41:04;99842.08;;;11.03;100.00
64628;BME280;59036;50.960;0.314;2022-10-30T06:43:32;99849.06;;;11.20;100.00
64628;BME280;59036;50.960;0.314;2022-10-30T06:45:59;99840.23;;;11.50;100.00
64628;BME280;59036;50.960;0.314;2022-10-30T06:48:26;99840.69;;;11.46;100.00
64628;BME280;59036;50.960;0.314;2022-10-30T06:50:53;99838.10;;;11.41;100.00
64628;BME280;59036;50.960;0.314;2022-10-30T06:53:21;99850.20;;;11.48;100.00
64628;BME280;59036;50.960;0.314;2022-10-30T06:55:57;99840.58;;;11.48;100.00
64628;BME280;59036;50.960;0.314;2022-10-30T06:58:25;99843.63;;;11.73;100.00
64628;BME280;59036;50.960;0.314;2022-10-30T07:00:53;99847.78;;;11.38;100.00
64628;BME280;59036;50.960;0.314;2022-10-30T07:03:20;99861.99;;;11.12;100.00
64628;BME280;59036;50.960;0.314;2022-10-30T07:05:48;99864.54;;;11.39;100.00
64628;BME280;59036;50.960;0.314;2022-10-30T07:08:15;99869.32;;;11.53;100.00
64628;BME280;59036;50.960;0.314;2022-10-30T07:10:43;99874.21;;;11.40;100.00
64628;BME280;59036;50.960;0.314;2022-10-30T07:13:10;99868.72;;;10.98;100.00
64628;BME280;59036;50.960;0.314;2022-10-30T07:15:36;99859.26;;;11.30;100.00
64628;BME280;59036;50.960;0.314;2022-10-30T07:18:04;99862.42;;;10.49;100.00
64628;BME280;59036;50.960;0.314;2022-10-30T07:20:32;99864.02;;;10.93;100.00
64628;BME280;59036;50.960;0.314;2022-10-30T07:23:00;99849.15;;;11.07;100.00
64628;BME280;59036;50.960;0.314;2022-10-30T07:25:28;99849.62;;;10.97;100.00
64628;BME280;59036;50.960;0.314;2022-10-30T07:27:56;99848.22;;;10.65;100.00
64628;BME280;59036;50.960;0.314;2022-10-30T07:30:25;99842.45;;;10.83;100.00
64628;BME280;59036;50.960;0.314;2022-10-30T07:33:00;99843.02;;;10.66;100.00
64628;BME280;59036;50.960;0.314;2022-10-30T07:35:29;99846.09;;;10.80;100.00
64628;BME280;59036;50.960;0.314;2022-10-30T07:38:00;99840.37;;;10.61;100.00
64628;BME280;59036;50.960;0.314;2022-10-30T07:40:28;99840.46;;;10.58;100.00
64628;BME280;59036;50.960;0.314;2022-10-30T07:42:56;99841.72;;;10.77;100.00
64628;BME280;59036;50.960;0.314;2022-10-30T07:45:23;99847.49;;;10.63;100.00
64628;BME280;59036;50.960;0.314;2022-10-30T07:47:51;99844.73;;;10.64;100.00
64628;BME280;59036;50.960;0.314;2022-10-30T07:50:18;99853.87;;;10.68;100.00
64628;BME280;59036;50.960;0.314;2022-10-30T07:52:45;99861.36;;;10.87;100.00
64628;BME280;59036;50.960;0.314;2022-10-30T07:55:13;99875.51;;;10.80;100.00
64628;BME280;59036;50.960;0.314;2022-10-30T07:57:41;99874.34;;;10.54;100.00
64628;BME280;59036;50.960;0.314;2022-10-30T08:00:10;99869.92;;;10.24;100.00
64628;BME280;59036;50.960;0.314;2022-10-30T08:02:38;99878.07;;;10.77;100.00
64628;BME280;59036;50.960;0.314;2022-10-30T08:05:06;99873.71;;;10.73;100.00
64628;BME280;59036;50.960;0.314;2022-10-30T08:07:36;99877.86;;;10.44;100.00
64628;BME280;59036;50.960;0.314;2022-10-30T08:10:04;99891.14;;;9.66;100.00
64628;BME280;59036;50.960;0.314;2022-10-30T08:12:32;99897.10;;;10.27;100.00
64628;BME280;59036;50.960;0.314;2022-10-30T08:15:00;99892.83;;;10.13;100.00
64628;BME280;59036;50.960;0.314;2022-10-30T08:17:27;99904.88;;;10.28;100.00
64628;BME280;59036;50.960;0.314;2022-10-30T08:19:54;99907.75;;;10.31;100.00
64628;BME280;59036;50.960;0.314;2022-10-30T08:22:21;99910.56;;;10.22;100.00
64628;BME280;59036;50.960;0.314;2022-10-30T08:24:49;99904.97;;;10.05;100.00
64628;BME280;59036;50.960;0.314;2022-10-30T08:27:16;99907.55;;;10.18;100.00
64628;BME280;59036;50.960;0.314;2022-10-30T08:29:44;99907.85;;;9.92;100.00
64628;BME280;59036;50.960;0.314;2022-10-30T08:32:11;99916.27;;;10.11;100.00
64628;BME280;59036;50.960;0.314;2022-10-30T08:34:38;99917.25;;;10.20;100.00
64628;BME280;59036;50.960;0.314;2022-10-30T08:37:05;99918.27;;;10.41;100.00
64628;BME280;59036;50.960;0.314;2022-10-30T08:39:32;99924.67;;;10.50;100.00
64628;BME280;59036;50.960;0.314;2022-10-30T08:41:59;99918.09;;;10.63;100.00
64628;BME280;59036;50.960;0.314;2022-10-30T08:44:26;99918.17;;;10.24;100.00
64628;BME280;59036;50.960;0.314;2022-10-30T08:46:52;99925.92;;;10.15;100.00
64628;BME280;59036;50.960;0.314;2022-10-30T08:49:19;99924.14;;;10.21;100.00
64628;BME280;59036;50.960;0.314;2022-10-30T08:51:46;99914.93;;;10.21;100.00
64628;BME280;59036;50.960;0.314;2022-10-30T08:54:13;99909.07;;;9.94;100.00
64628;BME280;59036;50.960;0.314;2022-10-30T08:56:40;99908.93;;;10.69;100.00
64628;BME280;59036;50.960;0.314;2022-10-30T08:59:07;99909.00;;;10.27;100.00
64628;BME280;59036;50.960;0.314;2022-10-30T09:01:34;99904.29;;;10.24;100.00
64628;BME280;59036;50.960;0.314;2022-10-30T09:04:02;99899.89;;;10.22;100.00
64628;BME280;59036;50.960;0.314;2022-10-30T09:06:29;99895.44;;;10.61;100.00
64628;BME280;59036;50.960;0.314;2022-10-30T09:08:57;99898.64;;;10.40;100.00
64628;BME280;59036;50.960;0.314;2022-10-30T09:11:24;99914.39;;;10.21;100.00
64628;BME280;59036;50.960;0.314;2022-10-30T09:13:51;99898.65;;;10.34;100.00
64628;BME280;59036;50.960;0.314;2022-10-30T09:16:18;99885.51;;;10.49;100.00
64628;BME280;59036;50.960;0.314;2022-10-30T09:18:45;99884.38;;;10.13;100.00
64628;BME280;59036;50.960;0.314;2022-10-30T09:21:12;99886.21;;;10.45;100.00
64628;BME280;59036;50.960;0.314;2022-10-30T09:23:40;99874.73;;;10.21;100.00
64628;BME280;59036;50.960;0.314;2022-10-30T09:26:07;99858.60;;;10.27;100.00
64628;BME280;59036;50.960;0.314;2022-10-30T09:28:34;99855.30;;;10.69;100.00
64628;BME280;59036;50.960;0.314;2022-10-30T09:31:02;99854.07;;;10.37;100.00
64628;BME280;59036;50.960;0.314;2022-10-30T09:33:29;99851.21;;;10.40;100.00
64628;BME280;59036;50.960;0.314;2022-10-30T09:35:56;99858.32;;;10.57;100.00
64628;BME280;59036;50.960;0.314;2022-10-30T09:38:23;99842.86;;;10.50;100.00
64628;BME280;59036;50.960;0.314;2022-10-30T09:41:03;99844.06;;;10.56;100.00
64628;BME280;59036;50.960;0.314;2022-10-30T09:43:41;99841.60;;;10.46;100.00
64628;BME280;59036;50.960;0.314;2022-10-30T09:46:22;99850.67;;;10.14;100.00
64628;BME280;59036;50.960;0.314;2022-10-30T09:49:04;99855.64;;;10.42;100.00
64628;BME280;59036;50.960;0.314;2022-10-30T09:51:48;99848.80;;;10.63;100.00
64628;BME280;59036;50.960;0.314;2022-10-30T09:54:28;99843.28;;;10.47;100.00
64628;BME280;59036;50.960;0.314;2022-10-30T09:57:01;99840.76;;;10.03;100.00
64628;BME280;59036;50.960;0.314;2022-10-30T09:59:40;99846.25;;;10.28;100.00
64628;BME280;59036;50.960;0.314;2022-10-30T10:02:23;99850.41;;;10.25;100.00
64628;BME280;59036;50.960;0.314;2022-10-30T10:04:57;99848.06;;;10.33;100.00
64628;BME280;59036;50.960;0.314;2022-10-30T10:07:29;99844.77;;;10.30;100.00
64628;BME280;59036;50.960;0.314;2022-10-30T10:10:00;99848.87;;;10.32;100.00
64628;BME280;59036;50.960;0.314;2022-10-30T10:12:34;99848.90;;;10.42;100.00
64628;BME280;59036;50.960;0.314;2022-10-30T10:15:10;99851.99;;;10.72;100.00
64628;BME280;59036;50.960;0.314;2022-10-30T10:17:43;99850.33;;;10.30;100.00
64628;BME280;59036;50.960;0.314;2022-10-30T10:20:16;99863.63;;;10.33;100.00
64628;BME280;59036;50.960;0.314;2022-10-30T10:22:48;99868.49;;;10.29;100.00
64628;BME280;59036;50.960;0.314;2022-10-30T10:25:17;99864.79;;;10.51;100.00
64628;BME280;59036;50.960;0.314;2022-10-30T10:27:56;99876.13;;;10.25;100.00
64628;BME280;59036;50.960;0.314;2022-10-30T10:30:31;99870.66;;;10.58;100.00
64628;BME280;59036;50.960;0.314;2022-10-30T10:33:31;99866.75;;;10.32;100.00
64628;BME280;59036;50.960;0.314;2022-10-30T10:36:07;99842.53;;;10.33;100.00
64628;BME280;59036;50.960;0.314;2022-10-30T10:38:46;99840.83;;;10.35;100.00
64628;BME280;59036;50.960;0.314;2022-10-30T10:41:23;99856.15;;;10.37;100.00
64628;BME280;59036;50.960;0.314;2022-10-30T10:44:03;99870.83;;;10.31;100.00
64628;BME280;59036;50.960;0.314;2022-10-30T10:46:44;99869.07;;;10.09;100.00
64628;BME280;59036;50.960;0.314;2022-10-30T10:49:25;99881.46;;;10.39;100.00
64628;BME280;59036;50.960;0.314;2022-10-30T10:51:58;99884.27;;;10.14;100.00
64628;BME280;59036;50.960;0.314;2022-10-30T10:54:32;99887.39;;;10.29;100.00
64628;BME280;59036;50.960;0.314;2022-10-30T10:57:04;99880.91;;;10.03;100.00
64628;BME280;59036;50.960;0.314;2022-10-30T10:59:36;99876.80;;;10.36;100.00
64628;BME280;59036;50.960;0.314;2022-10-30T11:02:24;99883.92;;;10.41;100.00
64628;BME280;59036;50.960;0.314;2022-10-30T11:04:58;99892.50;;;9.98;100.00
64628;BME280;59036;50.960;0.314;2022-10-30T11:07:30;99905.63;;;10.10;100.00
64628;BME280;59036;50.960;0.314;2022-10-30T11:09:58;99895.27;;;9.92;100.00
64628;BME280;59036;50.960;0.314;2022-10-30T11:12:28;99899.35;;;10.18;100.00
64628;BME280;59036;50.960;0.314;2022-10-30T11:14:57;99884.38;;;9.95;100.00
64628;BME280;59036;50.960;0.314;2022-10-30T11:17:34;99890.76;;;10.01;100.00
64628;BME280;59036;50.960;0.314;2022-10-30T11:20:15;99904.70;;;9.83;100.00
64628;BME280;59036;50.960;0.314;2022-10-30T11:22:49;99919.57;;;10.09;100.00
64628;BME280;59036;50.960;0.314;2022-10-30T11:25:20;99909.93;;;10.45;100.00
64628;BME280;59036;50.960;0.314;2022-10-30T11:27:49;99923.82;;;10.25;100.00
64628;BME280;59036;50.960;0.314;2022-10-30T11:30:22;99926.25;;;10.46;100.00
64628;BME280;59036;50.960;0.314;2022-10-30T11:32:49;99925.17;;;10.15;100.00
64628;BME280;59036;50.960;0.314;2022-10-30T11:35:19;99917.35;;;10.21;100.00
64628;BME280;59036;50.960;0.314;2022-10-30T11:37:47;99910.00;;;9.89;100.00
64628;BME280;59036;50.960;0.314;2022-10-30T11:40:17;99903.32;;;10.36;100.00
64628;BME280;59036;50.960;0.314;2022-10-30T11:42:48;99894.78;;;10.60;100.00
64628;BME280;59036;50.960;0.314;2022-10-30T11:45:17;99906.38;;;10.46;100.00
64628;BME280;59036;50.960;0.314;2022-10-30T11:47:46;99902.66;;;10.29;100.00
64628;BME280;59036;50.960;0.314;2022-10-30T11:50:18;99883.40;;;10.35;100.00
64628;BME280;59036;50.960;0.314;2022-10-30T11:52:46;99881.84;;;10.58;100.00
64628;BME280;59036;50.960;0.314;2022-10-30T11:55:17;99901.80;;;10.50;100.00
64628;BME280;59036;50.960;0.314;2022-10-30T11:57:48;99908.87;;;10.49;100.00
64628;BME280;59036;50.960;0.314;2022-10-30T12:00:18;99901.88;;;10.44;100.00
64628;BME280;59036;50.960;0.314;2022-10-30T12:02:47;99892.66;;;10.73;100.00
64628;BME280;59036;50.960;0.314;2022-10-30T12:05:35;99897.65;;;10.55;100.00
64628;BME280;59036;50.960;0.314;2022-10-30T12:08:20;99909.88;;;10.80;100.00
64628;BME280;59036;50.960;0.314;2022-10-30T12:10:59;99902.44;;;10.77;100.00
64628;BME280;59036;50.960;0.314;2022-10-30T12:13:34;99898.20;;;10.67;100.00
64628;BME280;59036;50.960;0.314;2022-10-30T12:16:06;99894.51;;;10.94;100.00
64628;BME280;59036;50.960;0.314;2022-10-30T12:18:34;99905.19;;;10.97;100.00
64628;BME280;59036;50.960;0.314;2022-10-30T12:21:02;99907.12;;;10.84;100.00
64628;BME280;59036;50.960;0.314;2022-10-30T12:23:32;99894.86;;;10.65;100.00
64628;BME280;59036;50.960;0.314;2022-10-30T12:26:06;99902.57;;;10.90;100.00
64628;BME280;59036;50.960;0.314;2022-10-30T12:28:35;99891.12;;;10.76;100.00
64628;BME280;59036;50.960;0.314;2022-10-30T12:31:08;99897.26;;;10.85;100.00
64628;BME280;59036;50.960;0.314;2022-10-30T12:33:40;99897.00;;;11.09;100.00
64628;BME280;59036;50.960;0.314;2022-10-30T12:36:11;99899.10;;;10.67;100.00
64628;BME280;59036;50.960;0.314;2022-10-30T12:38:44;99884.33;;;10.86;100.00
64628;BME280;59036;50.960;0.314;2022-10-30T12:41:17;99880.20;;;11.11;100.00
64628;BME280;59036;50.960;0.314;2022-10-30T12:43:53;99885.01;;;11.21;100.00
64628;BME280;59036;50.960;0.314;2022-10-30T12:46:32;99871.84;;;11.57;100.00
64628;BME280;59036;50.960;0.314;2022-10-30T12:49:07;99855.11;;;11.38;100.00
64628;BME280;59036;50.960;0.314;2022-10-30T12:51:45;99875.40;;;11.43;100.00
64628;BME280;59036;50.960;0.314;2022-10-30T12:54:21;99876.64;;;11.93;100.00
64628;BME280;59036;50.960;0.314;2022-10-30T12:56:55;99870.30;;;11.71;100.00
64628;BME280;59036;50.960;0.314;2022-10-30T12:59:33;99867.67;;;11.41;100.00
64628;BME280;59036;50.960;0.314;2022-10-30T13:02:15;99864.06;;;11.40;100.00
64628;BME280;59036;50.960;0.314;2022-10-30T13:04:51;99852.08;;;11.40;100.00